sensor_id;sensor_type;location;lat;lon;timestamp;pressure;altitude;pressure_sealevel;temperature;humidity
21234;BME280;10774;42.178;26.578;2023-01-15T00:00:48;100660.38;;;6.36;100.00
21234;BME280;10774;42.178;26.578;2023-01-15T00:03:14;100660.16;;;6.42;100.00
21234;BME280;10774;42.178;26.578;2023-01-15T00:05:39;100659.28;;;6.42;100.00
21234;BME280;10774;42.178;26.578;2023-01-15T00:08:05;100678.34;;;6.56;100.00
21234;BME280;10774;42.178;26.578;2023-01-15T00:10:30;100652.22;;;6.41;100.00
21234;BME280;10774;42.178;26.578;2023-01-15T00:12:56;100675.53;;;6.61;100.00
21234;BME280;10774;42.178;26.578;2023-01-15T00:15:21;100677.34;;;6.59;100.00
21234;BME280;10774;42.178;26.578;2023-01-15T00:17:47;100667.03;;;6.49;100.00
21234;BME280;10774;42.178;26.578;2023-01-15T00:20:12;100682.75;;;6.57;100.00
21234;BME280;10774;42.178;26.578;2023-01-15T00:22:38;100687.81;;;6.65;100.00
21234;BME280;10774;42.178;26.578;2023-01-15T00:25:05;100676.53;;;6.57;100.00
21234;BME280;10774;42.178;26.578;2023-01-15T00:27:49;100686.28;;;6.58;100.00
21234;BME280;10774;42.178;26.578;2023-01-15T00:30:16;100682.50;;;6.65;100.00
21234;BME280;10774;42.178;26.578;2023-01-15T00:32:42;100663.44;;;6.50;100.00
21234;BME280;10774;42.178;26.578;2023-01-15T00:35:16;100666.81;;;6.55;100.00
21234;BME280;10774;42.178;26.578;2023-01-15T00:37:42;100672.94;;;6.58;100.00
21234;BME280;10774;42.178;26.578;2023-01-15T00:40:08;100675.63;;;6.58;100.00
21234;BME280;10774;42.178;26.578;2023-01-15T00:42:34;100668.63;;;6.53;100.00
21234;BME280;10774;42.178;26.578;2023-01-15T00:44:59;100673.88;;;6.57;100.00
21234;BME280;10774;42.178;26.578;2023-01-15T00:47:32;100661.94;;;6.43;100.00
21234;BME280;10774;42.178;26.578;2023-01-15T00:49:57;100644.28;;;6.39;100.00
21234;BME280;10774;42.178;26.578;2023-01-15T00:52:23;100652.38;;;6.36;100.00
21234;BME280;10774;42.178;26.578;2023-01-15T00:54:48;100666.97;;;5.99;100.00
21234;BME280;10774;42.178;26.578;2023-01-15T00:57:13;100667.25;;;5.90;100.00
21234;BME280;10774;42.178;26.578;2023-01-15T00:59:39;100642.19;;;5.41;100.00
21234;BME280;10774;42.178;26.578;2023-01-15T01:02:05;100659.94;;;5.70;100.00
21234;BME280;10774;42.178;26.578;2023-01-15T01:04:30;100664.66;;;5.61;100.00
21234;BME280;10774;42.178;26.578;2023-01-15T01:06:56;100667.09;;;5.40;100.00
21234;BME280;10774;42.178;26.578;2023-01-15T01:09:21;100665.06;;;5.48;100.00
21234;BME280;10774;42.178;26.578;2023-01-15T01:11:48;100659.38;;;5.31;100.00
21234;BME280;10774;42.178;26.578;2023-01-15T01:14:14;100657.03;;;5.50;100.00
21234;BME280;10774;42.178;26.578;2023-01-15T01:16:40;100645.91;;;5.64;100.00
21234;BME280;10774;42.178;26.578;2023-01-15T01:21:32;100647.06;;;5.27;100.00
21234;BME280;10774;42.178;26.578;2023-01-15T01:23:59;100647.28;;;4.91;100.00
21234;BME280;10774;42.178;26.578;2023-01-15T01:26:25;100638.47;;;4.89;100.00
21234;BME280;10774;42.178;26.578;2023-01-15T01:28:52;100641.59;;;5.04;100.00
21234;BME280;10774;42.178;26.578;2023-01-15T01:31:18;100656.63;;;4.75;100.00
21234;BME280;10774;42.178;26.578;2023-01-15T01:33:44;100658.56;;;4.70;100.00
21234;BME280;10774;42.178;26.578;2023-01-15T01:36:09;100648.25;;;4.58;100.00
21234;BME280;10774;42.178;26.578;2023-01-15T01:38:35;100663.31;;;4.59;100.00
21234;BME280;10774;42.178;26.578;2023-01-15T01:41:00;100653.38;;;4.95;100.00
21234;BME280;10774;42.178;26.578;2023-01-15T01:43:27;100664.28;;;5.17;100.00
21234;BME280;10774;42.178;26.578;2023-01-15T01:45:54;100660.50;;;5.24;100.00
21234;BME280;10774;42.178;26.578;2023-01-15T01:48:29;100677.47;;;5.49;100.00
21234;BME280;10774;42.178;26.578;2023-01-15T01:50:56;100672.13;;;5.49;100.00
21234;BME280;10774;42.178;26.578;2023-01-15T01:53:27;100667.19;;;5.65;100.00
21234;BME280;10774;42.178;26.578;2023-01-15T01:55:54;100668.25;;;5.60;100.00
21234;BME280;10774;42.178;26.578;2023-01-15T01:58:20;100667.19;;;5.65;100.00
21234;BME280;10774;42.178;26.578;2023-01-15T02:00:49;100660.13;;;5.92;100.00
21234;BME280;10774;42.178;26.578;2023-01-15T02:03:17;100650.63;;;5.56;100.00
21234;BME280;10774;42.178;26.578;2023-01-15T02:05:51;100668.25;;;5.60;100.00
21234;BME280;10774;42.178;26.578;2023-01-15T02:08:17;100669.22;;;5.57;100.00
21234;BME280;10774;42.178;26.578;2023-01-15T02:10:43;100651.50;;;5.56;100.00
21234;BME280;10774;42.178;26.578;2023-01-15T02:13:17;100658.50;;;5.59;100.00
21234;BME280;10774;42.178;26.578;2023-01-15T02:16:06;100668.81;;;5.41;100.00
21234;BME280;10774;42.178;26.578;2023-01-15T02:18:42;100673.31;;;5.67;100.00
21234;BME280;10774;42.178;26.578;2023-01-15T02:24:08;100672.38;;;5.70;100.00
21234;BME280;10774;42.178;26.578;2023-01-15T02:26:57;100668.06;;;5.66;100.00
21234;BME280;10774;42.178;26.578;2023-01-15T02:29:35;100650.84;;;5.76;100.00
21234;BME280;10774;42.178;26.578;2023-01-15T02:32:09;100668.13;;;5.91;100.00
21234;BME280;10774;42.178;26.578;2023-01-15T02:34:38;100671.56;;;5.96;100.00
21234;BME280;10774;42.178;26.578;2023-01-15T02:37:12;100655.59;;;5.94;100.00
21234;BME280;10774;42.178;26.578;2023-01-15T02:39:41;100669.63;;;5.99;100.00
21234;BME280;10774;42.178;26.578;2023-01-15T02:42:10;100672.97;;;6.06;100.00
21234;BME280;10774;42.178;26.578;2023-01-15T02:44:40;100674.34;;;6.18;100.00
21234;BME280;10774;42.178;26.578;2023-01-15T02:47:07;100654.28;;;6.08;100.00
21234;BME280;10774;42.178;26.578;2023-01-15T02:49:35;100664.59;;;6.17;100.00
21234;BME280;10774;42.178;26.578;2023-01-15T02:54:35;100673.31;;;6.22;100.00
21234;BME280;10774;42.178;26.578;2023-01-15T02:57:03;100664.50;;;6.20;100.00
21234;BME280;10774;42.178;26.578;2023-01-15T02:59:34;100658.59;;;6.10;100.00
21234;BME280;10774;42.178;26.578;2023-01-15T03:02:04;100656.59;;;6.17;100.00
21234;BME280;10774;42.178;26.578;2023-01-15T03:09:31;100663.78;;;6.15;100.00
21234;BME280;10774;42.178;26.578;2023-01-15T03:14:40;100682.44;;;6.15;100.00
21234;BME280;10774;42.178;26.578;2023-01-15T03:17:34;100675.38;;;6.14;100.00
21234;BME280;10774;42.178;26.578;2023-01-15T03:20:07;100655.38;;;6.00;100.00
21234;BME280;10774;42.178;26.578;2023-01-15T03:22:36;100677.06;;;6.16;100.00
21234;BME280;10774;42.178;26.578;2023-01-15T03:25:07;100669.13;;;6.15;100.00
21234;BME280;10774;42.178;26.578;2023-01-15T03:27:36;100652.09;;;6.19;100.00
21234;BME280;10774;42.178;26.578;2023-01-15T03:30:13;100670.75;;;6.19;100.00
21234;BME280;10774;42.178;26.578;2023-01-15T03:32:39;100654.94;;;6.14;100.00
21234;BME280;10774;42.178;26.578;2023-01-15T03:38:13;100672.66;;;6.15;100.00
21234;BME280;10774;42.178;26.578;2023-01-15T03:40:56;100662.06;;;6.14;100.00
21234;BME280;10774;42.178;26.578;2023-01-15T03:43:39;100674.50;;;6.13;100.00
21234;BME280;10774;42.178;26.578;2023-01-15T03:46:10;100675.25;;;6.17;100.00
21234;BME280;10774;42.178;26.578;2023-01-15T03:48:47;100675.16;;;6.20;100.00
21234;BME280;10774;42.178;26.578;2023-01-15T03:51:37;100670.25;;;6.08;100.00
21234;BME280;10774;42.178;26.578;2023-01-15T03:54:10;100658.00;;;6.02;100.00
21234;BME280;10774;42.178;26.578;2023-01-15T03:56:44;100678.97;;;6.13;100.00
21234;BME280;10774;42.178;26.578;2023-01-15T03:59:30;100679.47;;;6.24;100.00
21234;BME280;10774;42.178;26.578;2023-01-15T04:01:58;100669.84;;;6.45;100.00
21234;BME280;10774;42.178;26.578;2023-01-15T04:04:25;100651.22;;;6.68;100.00
21234;BME280;10774;42.178;26.578;2023-01-15T04:06:52;100665.78;;;6.83;100.00
21234;BME280;10774;42.178;26.578;2023-01-15T04:09:18;100668.00;;;6.72;100.00
21234;BME280;10774;42.178;26.578;2023-01-15T04:11:44;100657.00;;;6.56;100.00
21234;BME280;10774;42.178;26.578;2023-01-15T04:14:12;100660.06;;;6.45;100.00
21234;BME280;10774;42.178;26.578;2023-01-15T04:16:38;100676.63;;;6.53;100.00
21234;BME280;10774;42.178;26.578;2023-01-15T04:19:04;100663.66;;;6.44;100.00
21234;BME280;10774;42.178;26.578;2023-01-15T04:21:29;100669.47;;;6.31;100.00
21234;BME280;10774;42.178;26.578;2023-01-15T04:23:55;100669.25;;;6.12;100.00
21234;BME280;10774;42.178;26.578;2023-01-15T04:26:21;100672.25;;;6.27;100.00
21234;BME280;10774;42.178;26.578;2023-01-15T04:28:46;100655.69;;;6.18;100.00
21234;BME280;10774;42.178;26.578;2023-01-15T04:31:12;100659.09;;;6.23;100.00
21234;BME280;10774;42.178;26.578;2023-01-15T04:33:37;100661.03;;;6.18;100.00
21234;BME280;10774;42.178;26.578;2023-01-15T04:36:06;100667.88;;;6.25;100.00
21234;BME280;10774;42.178;26.578;2023-01-15T04:38:33;100675.16;;;6.20;100.00
21234;BME280;10774;42.178;26.578;2023-01-15T04:41:02;100667.31;;;6.15;100.00
21234;BME280;10774;42.178;26.578;2023-01-15T04:43:46;100675.47;;;6.11;100.00
21234;BME280;10774;42.178;26.578;2023-01-15T04:46:30;100674.28;;;6.19;100.00
21234;BME280;10774;42.178;26.578;2023-01-15T04:48:56;100666.75;;;6.06;100.00
21234;BME280;10774;42.178;26.578;2023-01-15T04:51:21;100689.88;;;6.05;100.00
21234;BME280;10774;42.178;26.578;2023-01-15T04:53:47;100686.63;;;5.95;100.00
21234;BME280;10774;42.178;26.578;2023-01-15T04:56:12;100665.72;;;5.83;100.00
21234;BME280;10774;42.178;26.578;2023-01-15T04:58:37;100690.22;;;5.94;100.00
21234;BME280;10774;42.178;26.578;2023-01-15T05:01:10;100689.72;;;6.10;100.00
21234;BME280;10774;42.178;26.578;2023-01-15T05:03:35;100679.56;;;5.94;100.00
21234;BME280;10774;42.178;26.578;2023-01-15T05:06:01;100683.16;;;5.93;100.00
21234;BME280;10774;42.178;26.578;2023-01-15T05:08:28;100685.41;;;6.06;100.00
21234;BME280;10774;42.178;26.578;2023-01-15T05:10:53;100696.78;;;6.11;100.00
21234;BME280;10774;42.178;26.578;2023-01-15T05:13:19;100687.56;;;5.94;100.00
21234;BME280;10774;42.178;26.578;2023-01-15T05:15:44;100697.94;;;6.03;100.00
21234;BME280;10774;42.178;26.578;2023-01-15T05:18:11;100679.75;;;5.88;100.00
21234;BME280;10774;42.178;26.578;2023-01-15T05:20:40;100676.28;;;5.86;100.00
21234;BME280;10774;42.178;26.578;2023-01-15T05:23:06;100682.28;;;5.93;100.00
21234;BME280;10774;42.178;26.578;2023-01-15T05:25:32;100696.28;;;5.99;100.00
21234;BME280;10774;42.178;26.578;2023-01-15T05:27:57;100684.97;;;5.65;100.00
21234;BME280;10774;42.178;26.578;2023-01-15T05:30:23;100701.06;;;5.88;100.00
21234;BME280;10774;42.178;26.578;2023-01-15T05:32:48;100692.91;;;5.94;100.00
21234;BME280;10774;42.178;26.578;2023-01-15T05:35:13;100694.06;;;5.86;100.00
21234;BME280;10774;42.178;26.578;2023-01-15T05:37:39;100692.09;;;5.92;100.00
21234;BME280;10774;42.178;26.578;2023-01-15T05:40:05;100688.97;;;5.78;100.00
21234;BME280;10774;42.178;26.578;2023-01-15T05:42:30;100684.91;;;5.66;100.00
21234;BME280;10774;42.178;26.578;2023-01-15T05:44:56;100696.03;;;5.79;100.00
21234;BME280;10774;42.178;26.578;2023-01-15T05:47:21;100706.81;;;5.74;100.00
21234;BME280;10774;42.178;26.578;2023-01-15T05:49:46;100697.00;;;5.76;100.00
21234;BME280;10774;42.178;26.578;2023-01-15T05:52:14;100701.00;;;5.91;100.00
21234;BME280;10774;42.178;26.578;2023-01-15T05:54:40;100704.47;;;5.93;100.00
21234;BME280;10774;42.178;26.578;2023-01-15T05:57:06;100698.28;;;5.65;100.00
21234;BME280;10774;42.178;26.578;2023-01-15T05:59:34;100692.16;;;5.89;100.00
21234;BME280;10774;42.178;26.578;2023-01-15T06:02:00;100692.25;;;5.86;100.00
21234;BME280;10774;42.178;26.578;2023-01-15T06:04:25;100706.75;;;6.06;100.00
21234;BME280;10774;42.178;26.578;2023-01-15T06:06:52;100721.13;;;5.72;100.00
21234;BME280;10774;42.178;26.578;2023-01-15T06:09:18;100718.41;;;5.73;100.00
21234;BME280;10774;42.178;26.578;2023-01-15T06:11:44;100710.28;;;5.78;100.00
21234;BME280;10774;42.178;26.578;2023-01-15T06:14:11;100715.00;;;5.68;100.00
21234;BME280;10774;42.178;26.578;2023-01-15T06:16:37;100724.19;;;5.30;100.00
21234;BME280;10774;42.178;26.578;2023-01-15T06:19:04;100723.47;;;5.55;100.00
21234;BME280;10774;42.178;26.578;2023-01-15T06:21:32;100723.88;;;5.69;100.00
21234;BME280;10774;42.178;26.578;2023-01-15T06:23:57;100725.06;;;4.99;100.00
21234;BME280;10774;42.178;26.578;2023-01-15T06:26:23;100691.34;;;5.02;100.00
21234;BME280;10774;42.178;26.578;2023-01-15T06:28:49;100715.53;;;5.51;100.00
21234;BME280;10774;42.178;26.578;2023-01-15T06:31:17;100709.59;;;5.71;100.00
21234;BME280;10774;42.178;26.578;2023-01-15T06:33:43;100721.91;;;6.03;100.00
21234;BME280;10774;42.178;26.578;2023-01-15T06:36:14;100722.22;;;6.21;100.00
21234;BME280;10774;42.178;26.578;2023-01-15T06:38:41;100727.31;;;6.28;100.00
21234;BME280;10774;42.178;26.578;2023-01-15T06:41:12;100716.28;;;6.39;100.00
21234;BME280;10774;42.178;26.578;2023-01-15T06:43:56;100727.22;;;6.57;100.00
21234;BME280;10774;42.178;26.578;2023-01-15T06:46:46;100726.25;;;6.59;100.00
21234;BME280;10774;42.178;26.578;2023-01-15T06:49:30;100715.59;;;6.59;100.00
21234;BME280;10774;42.178;26.578;2023-01-15T06:51:56;100718.53;;;6.76;100.00
21234;BME280;10774;42.178;26.578;2023-01-15T06:54:21;100729.06;;;6.79;100.00
21234;BME280;10774;42.178;26.578;2023-01-15T06:56:47;100725.38;;;6.84;100.00
21234;BME280;10774;42.178;26.578;2023-01-15T06:59:12;100722.94;;;7.01;100.00
21234;BME280;10774;42.178;26.578;2023-01-15T07:01:37;100703.28;;;7.03;100.00
21234;BME280;10774;42.178;26.578;2023-01-15T07:04:03;100722.22;;;6.97;100.00
21234;BME280;10774;42.178;26.578;2023-01-15T07:06:28;100729.19;;;7.01;100.00
21234;BME280;10774;42.178;26.578;2023-01-15T07:08:54;100701.19;;;6.88;100.00
21234;BME280;10774;42.178;26.578;2023-01-15T07:11:19;100708.25;;;6.89;100.00
21234;BME280;10774;42.178;26.578;2023-01-15T07:13:45;100715.00;;;6.99;100.00
21234;BME280;10774;42.178;26.578;2023-01-15T07:16:10;100712.88;;;6.86;100.00
21234;BME280;10774;42.178;26.578;2023-01-15T07:18:51;100741.63;;;7.01;100.00
21234;BME280;10774;42.178;26.578;2023-01-15T07:21:18;100741.31;;;7.10;100.00
21234;BME280;10774;42.178;26.578;2023-01-15T07:23:43;100741.59;;;7.02;100.00
21234;BME280;10774;42.178;26.578;2023-01-15T07:26:09;100734.13;;;7.12;100.00
21234;BME280;10774;42.178;26.578;2023-01-15T07:28:34;100737.00;;;7.06;100.00
21234;BME280;10774;42.178;26.578;2023-01-15T07:30:59;100729.63;;;6.89;100.00
21234;BME280;10774;42.178;26.578;2023-01-15T07:33:25;100739.66;;;6.82;100.00
21234;BME280;10774;42.178;26.578;2023-01-15T07:35:50;100721.75;;;6.85;100.00
21234;BME280;10774;42.178;26.578;2023-01-15T07:38:15;100727.88;;;6.88;100.00
21234;BME280;10774;42.178;26.578;2023-01-15T07:40:41;100722.75;;;6.82;100.00
21234;BME280;10774;42.178;26.578;2023-01-15T07:43:07;100727.88;;;6.88;100.00
21234;BME280;10774;42.178;26.578;2023-01-15T07:45:51;100734.16;;;7.11;100.00
21234;BME280;10774;42.178;26.578;2023-01-15T07:48:35;100722.16;;;7.22;100.00
21234;BME280;10774;42.178;26.578;2023-01-15T07:51:19;100714.13;;;7.22;100.00
21234;BME280;10774;42.178;26.578;2023-01-15T07:53:45;100723.03;;;7.23;100.00
21234;BME280;10774;42.178;26.578;2023-01-15T07:56:10;100728.94;;;7.07;100.00
21234;BME280;10774;42.178;26.578;2023-01-15T07:58:36;100723.09;;;6.98;100.00
21234;BME280;10774;42.178;26.578;2023-01-15T08:01:01;100719.78;;;6.91;100.00
21234;BME280;10774;42.178;26.578;2023-01-15T08:03:26;100736.97;;;7.07;100.00
21234;BME280;10774;42.178;26.578;2023-01-15T08:05:52;100741.03;;;7.18;100.00
21234;BME280;10774;42.178;26.578;2023-01-15T08:08:17;100723.47;;;7.11;100.00
21234;BME280;10774;42.178;26.578;2023-01-15T08:10:43;100725.03;;;7.18;100.00
21234;BME280;10774;42.178;26.578;2023-01-15T08:13:28;100720.88;;;7.32;100.00
21234;BME280;10774;42.178;26.578;2023-01-15T08:16:12;100743.34;;;7.50;100.00
21234;BME280;10774;42.178;26.578;2023-01-15T08:18:37;100741.03;;;7.65;100.00
21234;BME280;10774;42.178;26.578;2023-01-15T08:21:03;100740.72;;;7.72;100.00
21234;BME280;10774;42.178;26.578;2023-01-15T08:23:29;100736.50;;;7.20;100.00
21234;BME280;10774;42.178;26.578;2023-01-15T08:25:58;100718.25;;;7.54;100.00
21234;BME280;10774;42.178;26.578;2023-01-15T08:28:24;100723.63;;;7.54;100.00
21234;BME280;10774;42.178;26.578;2023-01-15T08:30:49;100726.59;;;7.69;100.00
21234;BME280;10774;42.178;26.578;2023-01-15T08:33:14;100723.56;;;7.78;100.00
21234;BME280;10774;42.178;26.578;2023-01-15T08:35:40;100736.56;;;8.09;100.00
21234;BME280;10774;42.178;26.578;2023-01-15T08:38:06;100744.34;;;7.70;100.00
21234;BME280;10774;42.178;26.578;2023-01-15T08:40:32;100722.34;;;7.41;100.00
21234;BME280;10774;42.178;26.578;2023-01-15T08:42:58;100736.03;;;7.55;100.00
21234;BME280;10774;42.178;26.578;2023-01-15T08:45:23;100731.13;;;7.43;100.00
21234;BME280;10774;42.178;26.578;2023-01-15T08:47:48;100740.22;;;7.39;100.00
21234;BME280;10774;42.178;26.578;2023-01-15T08:50:14;100742.06;;;7.37;100.00
21234;BME280;10774;42.178;26.578;2023-01-15T08:52:39;100743.22;;;7.53;100.00
21234;BME280;10774;42.178;26.578;2023-01-15T08:55:06;100738.66;;;7.79;100.00
21234;BME280;10774;42.178;26.578;2023-01-15T08:57:31;100728.59;;;8.07;100.00
21234;BME280;10774;42.178;26.578;2023-01-15T08:59:57;100738.69;;;8.23;100.00
21234;BME280;10774;42.178;26.578;2023-01-15T09:02:22;100734.72;;;8.31;100.00
21234;BME280;10774;42.178;26.578;2023-01-15T09:04:48;100725.47;;;8.40;100.00
21234;BME280;10774;42.178;26.578;2023-01-15T09:07:13;100739.00;;;8.57;100.00
21234;BME280;10774;42.178;26.578;2023-01-15T09:09:39;100740.75;;;8.58;100.00
21234;BME280;10774;42.178;26.578;2023-01-15T09:12:04;100724.69;;;8.58;100.00
21234;BME280;10774;42.178;26.578;2023-01-15T09:14:30;100726.97;;;8.68;100.00
21234;BME280;10774;42.178;26.578;2023-01-15T09:16:55;100715.31;;;8.69;100.00
21234;BME280;10774;42.178;26.578;2023-01-15T09:19:21;100700.69;;;7.25;100.00
21234;BME280;10774;42.178;26.578;2023-01-15T09:21:47;100698.88;;;6.54;100.00
21234;BME280;10774;42.178;26.578;2023-01-15T09:24:12;100714.50;;;6.65;100.00
21234;BME280;10774;42.178;26.578;2023-01-15T09:26:38;100688.84;;;6.36;100.00
21234;BME280;10774;42.178;26.578;2023-01-15T09:29:05;100684.88;;;6.22;100.00
21234;BME280;10774;42.178;26.578;2023-01-15T09:31:31;100703.91;;;6.12;100.00
21234;BME280;10774;42.178;26.578;2023-01-15T09:33:57;100697.13;;;6.28;100.00
21234;BME280;10774;42.178;26.578;2023-01-15T09:36:31;100683.16;;;5.93;100.00
21234;BME280;10774;42.178;26.578;2023-01-15T09:38:58;100695.56;;;6.21;100.00
21234;BME280;10774;42.178;26.578;2023-01-15T09:41:27;100696.06;;;6.06;100.00
21234;BME280;10774;42.178;26.578;2023-01-15T09:57:23;100682.13;;;6.24;100.00
21234;BME280;10774;42.178;26.578;2023-01-15T09:59:51;100689.31;;;6.22;100.00
21234;BME280;10774;42.178;26.578;2023-01-15T10:02:21;100680.41;;;6.23;100.00
21234;BME280;10774;42.178;26.578;2023-01-15T10:04:51;100649.28;;;6.23;100.00
21234;BME280;10774;42.178;26.578;2023-01-15T10:07:29;100665.16;;;6.26;100.00
21234;BME280;10774;42.178;26.578;2023-01-15T10:10:02;100667.38;;;6.14;100.00
21234;BME280;10774;42.178;26.578;2023-01-15T10:12:29;100659.59;;;6.58;100.00
21234;BME280;10774;42.178;26.578;2023-01-15T10:16:00;100668.09;;;6.69;100.00
21234;BME280;10774;42.178;26.578;2023-01-15T10:18:20;100668.94;;;6.94;100.00
21234;BME280;10774;42.178;26.578;2023-01-15T10:21:08;100659.16;;;7.17;100.00
21234;BME280;10774;42.178;26.578;2023-01-15T10:26:13;100651.25;;;7.37;100.00
21234;BME280;10774;42.178;26.578;2023-01-15T10:29:05;100630.88;;;7.13;100.00
21234;BME280;10774;42.178;26.578;2023-01-15T10:36:41;100626.25;;;7.16;100.00
21234;BME280;10774;42.178;26.578;2023-01-15T10:42:05;100623.34;;;6.77;100.00
21234;BME280;10774;42.178;26.578;2023-01-15T10:47:17;100600.34;;;6.73;100.00
21234;BME280;10774;42.178;26.578;2023-01-15T10:49:43;100591.28;;;6.53;100.00
21234;BME280;10774;42.178;26.578;2023-01-15T10:52:22;100601.75;;;6.83;100.00
21234;BME280;10774;42.178;26.578;2023-01-15T10:54:54;100595.91;;;6.73;100.00
21234;BME280;10774;42.178;26.578;2023-01-15T10:57:45;100598.78;;;6.67;100.00
21234;BME280;10774;42.178;26.578;2023-01-15T11:00:15;100599.81;;;7.32;100.00
21234;BME280;10774;42.178;26.578;2023-01-15T11:05:23;100579.06;;;7.82;100.00
21234;BME280;10774;42.178;26.578;2023-01-15T11:07:52;100596.06;;;8.02;100.00
21234;BME280;10774;42.178;26.578;2023-01-15T11:10:20;100596.78;;;8.05;100.00
21234;BME280;10774;42.178;26.578;2023-01-15T11:12:59;100587.41;;;8.16;100.00
21234;BME280;10774;42.178;26.578;2023-01-15T11:15:49;100590.50;;;7.42;100.00
21234;BME280;10774;42.178;26.578;2023-01-15T11:18:39;100580.81;;;7.62;100.00
21234;BME280;10774;42.178;26.578;2023-01-15T11:21:25;100564.84;;;7.38;100.00
21234;BME280;10774;42.178;26.578;2023-01-15T11:23:52;100584.03;;;7.70;100.00
21234;BME280;10774;42.178;26.578;2023-01-15T11:26:37;100570.84;;;7.87;100.00
21234;BME280;10774;42.178;26.578;2023-01-15T11:29:12;100566.41;;;8.06;100.00
21234;BME280;10774;42.178;26.578;2023-01-15T11:31:39;100567.72;;;8.38;100.00
21234;BME280;10774;42.178;26.578;2023-01-15T11:34:17;100571.75;;;8.27;100.00
21234;BME280;10774;42.178;26.578;2023-01-15T11:36:45;100564.53;;;7.68;100.00
21234;BME280;10774;42.178;26.578;2023-01-15T11:39:27;100559.72;;;7.55;100.00
21234;BME280;10774;42.178;26.578;2023-01-15T11:42:11;100553.53;;;7.33;100.00
21234;BME280;10774;42.178;26.578;2023-01-15T11:44:58;100539.97;;;7.59;100.00
21234;BME280;10774;42.178;26.578;2023-01-15T11:47:52;100541.25;;;7.05;100.00
21234;BME280;10774;42.178;26.578;2023-01-15T11:50:49;100519.47;;;7.38;100.00
21234;BME280;10774;42.178;26.578;2023-01-15T11:53:19;100535.28;;;7.85;100.00
21234;BME280;10774;42.178;26.578;2023-01-15T11:55:54;100536.22;;;8.04;100.00
21234;BME280;10774;42.178;26.578;2023-01-15T11:58:26;100529.44;;;7.13;100.00
21234;BME280;10774;42.178;26.578;2023-01-15T12:00:52;100530.13;;;7.18;100.00
21234;BME280;10774;42.178;26.578;2023-01-15T12:03:21;100539.78;;;7.20;100.00
21234;BME280;10774;42.178;26.578;2023-01-15T12:05:58;100524.75;;;6.96;100.00
21234;BME280;10774;42.178;26.578;2023-01-15T12:27:50;100514.88;;;7.20;100.00
21234;BME280;10774;42.178;26.578;2023-01-15T12:35:45;100511.59;;;8.17;100.00
21234;BME280;10774;42.178;26.578;2023-01-15T12:38:19;100512.91;;;8.47;100.00
21234;BME280;10774;42.178;26.578;2023-01-15T12:40:59;100507.28;;;8.53;100.00
21234;BME280;10774;42.178;26.578;2023-01-15T12:43:27;100514.59;;;8.69;100.00
21234;BME280;10774;42.178;26.578;2023-01-15T12:46:26;100514.28;;;8.37;100.00
21234;BME280;10774;42.178;26.578;2023-01-15T12:49:54;100513.69;;;8.10;100.00
21234;BME280;10774;42.178;26.578;2023-01-15T12:52:18;100504.34;;;7.79;100.00
21234;BME280;10774;42.178;26.578;2023-01-15T12:55:25;100500.56;;;8.24;100.00
21234;BME280;10774;42.178;26.578;2023-01-15T12:57:55;100500.50;;;8.26;100.00
21234;BME280;10774;42.178;26.578;2023-01-15T13:00:40;100502.88;;;8.32;100.00
21234;BME280;10774;42.178;26.578;2023-01-15T13:03:22;100509.28;;;8.48;100.00
21234;BME280;10774;42.178;26.578;2023-01-15T13:05:57;100479.22;;;8.43;100.00
21234;BME280;10774;42.178;26.578;2023-01-15T13:11:02;100488.75;;;8.49;100.00
21234;BME280;10774;42.178;26.578;2023-01-15T13:13:32;100501.78;;;8.56;100.00
21234;BME280;10774;42.178;26.578;2023-01-15T13:21:28;100487.25;;;8.43;100.00
21234;BME280;10774;42.178;26.578;2023-01-15T13:24:39;100495.25;;;8.43;100.00
21234;BME280;10774;42.178;26.578;2023-01-15T13:27:05;100501.78;;;8.56;100.00
21234;BME280;10774;42.178;26.578;2023-01-15T13:29:47;100498.19;;;8.57;100.00
21234;BME280;10774;42.178;26.578;2023-01-15T13:32:20;100485.75;;;8.56;100.00
21234;BME280;10774;42.178;26.578;2023-01-15T13:34:50;100487.47;;;8.76;100.00
21234;BME280;10774;42.178;26.578;2023-01-15T13:39:48;100484.72;;;8.78;100.00
21234;BME280;10774;42.178;26.578;2023-01-15T13:42:19;100485.50;;;8.80;100.00
21234;BME280;10774;42.178;26.578;2023-01-15T13:45:19;100488.63;;;8.71;100.00
21234;BME280;10774;42.178;26.578;2023-01-15T13:47:55;100483.19;;;8.53;100.00
21234;BME280;10774;42.178;26.578;2023-01-15T13:50:30;100495.31;;;8.02;100.00
21234;BME280;10774;42.178;26.578;2023-01-15T13:53:03;100493.03;;;8.13;100.00
21234;BME280;10774;42.178;26.578;2023-01-15T13:55:39;100477.31;;;7.67;100.00
21234;BME280;10774;42.178;26.578;2023-01-15T13:58:25;100486.09;;;7.69;100.00
21234;BME280;10774;42.178;26.578;2023-01-15T14:06:42;100475.41;;;7.69;100.00
21234;BME280;10774;42.178;26.578;2023-01-15T14:17:49;100470.06;;;7.69;100.00
21234;BME280;10774;42.178;26.578;2023-01-15T14:36:45;100457.94;;;7.62;100.00
21234;BME280;10774;42.178;26.578;2023-01-15T14:39:24;100456.84;;;7.86;100.00
21234;BME280;10774;42.178;26.578;2023-01-15T14:41:57;100454.59;;;7.77;100.00
21234;BME280;10774;42.178;26.578;2023-01-15T14:44:44;100458.44;;;7.90;100.00
21234;BME280;10774;42.178;26.578;2023-01-15T14:47:21;100449.75;;;7.85;100.00
21234;BME280;10774;42.178;26.578;2023-01-15T14:50:00;100445.09;;;7.70;100.00
21234;BME280;10774;42.178;26.578;2023-01-15T14:52:26;100438.16;;;7.66;100.00